Time;durP1;ratioP1;P1;durP2;ratioP2;P2;SDS_P1;SDS_P2;PMS_P1;PMS_P2;Temp;Humidity;BMP_temperature;BMP_pressure;BME280_temperature;BME280_humidity;BME280_pressure;Samples;Min_cycle;Max_cycle;Signal;HPM_P1;HPM_P2
2023/01/25 00:01:51;;;;;;;21.58;8.73;;;4.30;93.70;;;;;;4972327;28;20030;-62
2023/01/25 00:04:21;;;;;;;20.73;9.10;;;4.30;93.80;;;;;;4968445;28;20375;-63
2023/01/25 00:06:47;;;;;;;21.15;8.85;;;4.20;93.80;;;;;;4970568;28;20043;-63
2023/01/25 00:09:14;;;;;;;20.67;8.60;;;4.30;93.80;;;;;;4974387;28;20200;-63
2023/01/25 00:11:41;;;;;;;25.40;9.52;;;4.30;93.70;;;;;;4974484;28;20026;-63
2023/01/25 00:14:08;;;;;;;23.55;10.23;;;4.30;93.80;;;;;;4980388;28;20039;-63
2023/01/25 00:16:34;;;;;;;24.58;9.82;;;4.30;93.80;;;;;;4977074;28;20751;-63
2023/01/25 00:19:00;;;;;;;20.00;9.10;;;4.40;93.80;;;;;;4975434;28;20870;-63
2023/01/25 00:21:26;;;;;;;19.20;9.32;;;4.40;93.90;;;;;;4977517;28;20031;-63
2023/01/25 00:23:52;;;;;;;18.77;8.25;;;4.40;93.90;;;;;;4976429;28;20041;-63
2023/01/25 00:26:18;;;;;;;14.88;8.10;;;4.40;94.00;;;;;;4971954;28;20502;-63
2023/01/25 00:28:52;;;;;;;20.08;8.68;;;4.40;94.10;;;;;;4975625;28;20039;-63
2023/01/25 00:31:31;;;;;;;19.45;8.85;;;4.40;94.20;;;;;;4954533;28;20038;-63
2023/01/25 00:34:05;;;;;;;20.60;9.00;;;4.40;94.00;;;;;;4970540;28;20218;-63
2023/01/25 00:36:39;;;;;;;20.70;8.73;;;4.30;93.90;;;;;;4978247;28;20035;-63
2023/01/25 00:39:09;;;;;;;18.33;8.80;;;4.40;93.50;;;;;;4910835;28;20058;-63
2023/01/25 00:41:34;;;;;;;18.50;8.60;;;4.30;93.50;;;;;;4954196;28;20478;-67
2023/01/25 00:44:00;;;;;;;19.35;9.02;;;4.30;93.70;;;;;;4954251;28;20038;-63
2023/01/25 00:46:26;;;;;;;20.90;9.70;;;4.30;93.70;;;;;;4955837;28;20039;-63
2023/01/25 00:48:53;;;;;;;15.15;7.65;;;4.30;93.60;;;;;;4956317;28;20042;-63
2023/01/25 00:51:20;;;;;;;16.27;8.05;;;4.40;93.70;;;;;;4949688;28;20054;-63
2023/01/25 00:53:46;;;;;;;26.17;10.68;;;4.40;93.80;;;;;;4951583;28;20035;-63
2023/01/25 00:56:12;;;;;;;21.85;10.60;;;4.40;93.70;;;;;;4954598;28;20035;-64
2023/01/25 00:58:40;;;;;;;24.45;9.25;;;4.40;93.40;;;;;;4956199;28;20109;-64
2023/01/25 01:01:09;;;;;;;20.20;9.02;;;4.30;93.60;;;;;;4943043;28;20624;-63
2023/01/25 01:03:35;;;;;;;27.58;9.95;;;4.30;93.80;;;;;;4952621;28;20043;-63
2023/01/25 01:06:07;;;;;;;22.50;10.07;;;4.40;93.90;;;;;;4953350;28;20034;-63
2023/01/25 01:08:35;;;;;;;21.48;10.15;;;4.30;94.00;;;;;;4953606;28;20047;-63
2023/01/25 01:11:04;;;;;;;24.67;9.95;;;4.30;94.00;;;;;;4936092;28;20467;-63
2023/01/25 01:13:30;;;;;;;19.42;9.07;;;4.30;94.00;;;;;;4952138;28;20043;-63
2023/01/25 01:15:59;;;;;;;21.63;9.95;;;4.30;94.10;;;;;;4949045;28;20038;-63
2023/01/25 01:18:25;;;;;;;23.42;10.55;;;4.20;94.40;;;;;;4938698;28;20027;-63
2023/01/25 01:20:54;;;;;;;23.42;9.18;;;4.20;94.00;;;;;;4954958;28;20074;-63
2023/01/25 01:23:20;;;;;;;23.80;10.00;;;4.20;94.30;;;;;;4952900;28;20718;-63
2023/01/25 01:25:46;;;;;;;28.30;10.77;;;4.20;94.40;;;;;;4938600;28;20778;-63
2023/01/25 01:28:12;;;;;;;21.73;9.93;;;4.30;94.40;;;;;;4952568;28;20031;-63
2023/01/25 01:30:38;;;;;;;18.05;8.68;;;4.30;94.40;;;;;;4950173;28;20387;-63
2023/01/25 01:33:06;;;;;;;19.30;9.48;;;4.30;94.50;;;;;;4932898;28;20094;-63
2023/01/25 01:35:32;;;;;;;19.42;9.70;;;4.30;94.50;;;;;;4952685;28;20451;-64
2023/01/25 01:37:58;;;;;;;22.38;9.63;;;4.30;94.60;;;;;;4957173;28;20041;-64
2023/01/25 01:40:25;;;;;;;24.95;11.00;;;4.30;94.50;;;;;;4959328;28;20071;-63
2023/01/25 01:43:06;;;;;;;22.42;9.45;;;4.30;94.50;;;;;;4954732;28;20997;-63
2023/01/25 01:45:57;;;;;;;20.08;9.90;;;4.30;94.40;;;;;;4936045;28;20053;-63
2023/01/25 01:48:38;;;;;;;18.60;9.07;;;4.40;94.40;;;;;;4958787;28;20134;-63
2023/01/25 01:51:19;;;;;;;24.33;10.43;;;4.40;94.50;;;;;;4957167;28;20121;-64
2023/01/25 01:53:51;;;;;;;29.85;12.10;;;4.30;94.60;;;;;;4952191;28;20031;-63
2023/01/25 01:56:25;;;;;;;22.58;9.82;;;4.40;94.50;;;;;;4936176;28;20038;-63
2023/01/25 01:58:54;;;;;;;25.08;10.65;;;4.30;94.60;;;;;;4933637;28;20135;-63
2023/01/25 02:01:20;;;;;;;22.17;10.75;;;4.40;94.90;;;;;;4935121;28;20054;-63
2023/01/25 02:03:47;;;;;;;27.85;10.23;;;4.40;94.70;;;;;;4940391;28;20035;-63
2023/01/25 02:06:18;;;;;;;26.63;10.60;;;4.30;94.70;;;;;;4952434;28;20039;-62
2023/01/25 02:08:44;;;;;;;23.63;11.32;;;4.40;94.70;;;;;;4935257;28;20043;-64
2023/01/25 02:11:11;;;;;;;25.08;10.38;;;4.30;94.70;;;;;;4954473;28;20399;-63
2023/01/25 02:13:37;;;;;;;26.45;10.65;;;4.30;94.60;;;;;;4955350;28;20108;-64
2023/01/25 02:16:05;;;;;;;22.50;10.38;;;4.30;94.20;;;;;;4951358;28;20504;-63
2023/01/25 02:18:32;;;;;;;29.35;11.70;;;4.30;94.20;;;;;;4951443;28;20395;-63
2023/01/25 02:20:59;;;;;;;23.98;10.77;;;4.20;94.50;;;;;;4954019;28;20553;-63
2023/01/25 02:23:31;;;;;;;21.60;9.27;;;4.30;94.50;;;;;;4955092;28;20698;-63
2023/01/25 02:26:00;;;;;;;22.85;10.00;;;4.20;94.40;;;;;;4952613;28;20126;-63
2023/01/25 02:28:54;;;;;;;24.33;10.98;;;4.30;94.60;;;;;;4955859;28;20035;-63
2023/01/25 02:31:23;;;;;;;20.90;9.48;;;4.30;94.50;;;;;;4935756;28;20078;-63
2023/01/25 02:33:48;;;;;;;26.40;11.90;;;4.30;94.50;;;;;;4951437;28;20035;-63
2023/01/25 02:36:27;;;;;;;22.52;10.30;;;4.30;94.50;;;;;;4955841;28;20046;-63
2023/01/25 02:39:02;;;;;;;27.58;12.40;;;4.30;94.60;;;;;;4952845;28;20047;-63
2023/01/25 02:41:44;;;;;;;23.73;11.10;;;4.30;94.60;;;;;;4940638;28;20662;-63
2023/01/25 02:44:30;;;;;;;23.67;11.48;;;4.30;94.20;;;;;;4954664;28;20129;-63
2023/01/25 02:46:57;;;;;;;22.85;10.20;;;4.30;94.50;;;;;;4952632;28;20662;-63
2023/01/25 02:49:23;;;;;;;24.63;10.27;;;4.30;94.70;;;;;;4951222;28;20063;-63
2023/01/25 02:51:56;;;;;;;27.10;11.15;;;4.30;94.70;;;;;;4956771;28;20042;-63
2023/01/25 02:54:24;;;;;;;21.95;10.40;;;4.30;94.80;;;;;;4952286;28;20682;-63
2023/01/25 02:56:50;;;;;;;23.63;11.10;;;4.30;94.80;;;;;;4933408;28;20070;-63
2023/01/25 02:59:17;;;;;;;22.85;10.15;;;4.30;94.80;;;;;;4952581;28;20588;-63
2023/01/25 03:01:48;;;;;;;21.65;10.65;;;4.30;94.70;;;;;;4934526;28;20586;-63
2023/01/25 03:04:14;;;;;;;23.60;10.27;;;4.30;94.50;;;;;;4939725;28;20038;-63
2023/01/25 03:06:41;;;;;;;23.95;10.88;;;4.30;94.90;;;;;;4956306;28;20360;-63
2023/01/25 03:09:08;;;;;;;27.25;10.82;;;4.30;95.10;;;;;;4950973;28;20051;-63
2023/01/25 03:11:35;;;;;;;22.75;9.90;;;4.30;95.10;;;;;;4951334;28;20066;-64
2023/01/25 03:14:01;;;;;;;28.70;11.32;;;4.20;95.30;;;;;;4949359;28;20035;-63
2023/01/25 03:16:30;;;;;;;29.42;11.57;;;4.30;95.00;;;;;;4940663;28;20034;-64
2023/01/25 03:18:56;;;;;;;22.88;10.65;;;4.30;95.00;;;;;;4932665;28;20046;-63
2023/01/25 03:21:23;;;;;;;23.23;10.15;;;4.30;94.90;;;;;;4932342;28;20037;-63
2023/01/25 03:24:00;;;;;;;23.17;10.98;;;4.40;95.10;;;;;;4949499;28;20066;-63
2023/01/25 03:27:09;;;;;;;23.80;11.35;;;4.40;94.90;;;;;;4933291;28;20928;-64
2023/01/25 03:29:30;;;;;;;20.45;10.15;;;4.40;94.90;;;;;;4953533;28;20035;-63
2023/01/25 03:31:57;;;;;;;21.17;11.05;;;4.40;94.80;;;;;;4938329;28;20035;-63
2023/01/25 03:34:23;;;;;;;29.48;11.85;;;4.40;94.80;;;;;;4939106;28;20039;-63
2023/01/25 03:36:49;;;;;;;19.45;9.48;;;4.40;94.80;;;;;;4949385;28;20030;-63
2023/01/25 03:39:14;;;;;;;24.20;11.05;;;4.40;94.90;;;;;;4952938;28;20034;-63
2023/01/25 03:41:42;;;;;;;27.10;11.65;;;4.30;95.20;;;;;;4950889;28;20053;-63
2023/01/25 03:44:10;;;;;;;25.20;12.00;;;4.30;95.30;;;;;;4950311;28;20039;-63
2023/01/25 03:46:38;;;;;;;26.13;11.52;;;4.40;95.20;;;;;;4935596;28;20105;-63
2023/01/25 03:49:05;;;;;;;22.65;11.13;;;4.40;95.00;;;;;;4952311;28;20039;-63
2023/01/25 03:51:31;;;;;;;23.60;10.60;;;4.40;95.00;;;;;;4950783;28;20035;-63
2023/01/25 03:53:57;;;;;;;23.02;11.00;;;4.30;95.10;;;;;;4953623;28;20035;-63
2023/01/25 03:56:25;;;;;;;29.98;12.18;;;4.30;95.40;;;;;;4957264;28;20443;-63
2023/01/25 03:59:03;;;;;;;27.15;11.50;;;4.40;95.40;;;;;;4941275;28;20038;-63
2023/01/25 04:01:29;;;;;;;25.83;11.75;;;4.30;95.50;;;;;;4946795;28;20046;-63
2023/01/25 04:03:55;;;;;;;24.33;11.55;;;4.30;95.60;;;;;;4956352;28;20035;-63
2023/01/25 04:06:21;;;;;;;27.88;11.93;;;4.30;95.40;;;;;;4939379;28;20035;-63
2023/01/25 04:08:47;;;;;;;23.50;11.43;;;4.40;95.30;;;;;;4945128;28;20081;-63
2023/01/25 04:11:13;;;;;;;28.13;10.95;;;4.40;95.30;;;;;;4945948;28;20084;-63
2023/01/25 04:13:40;;;;;;;20.77;9.55;;;4.30;95.50;;;;;;4960200;28;20031;-63
2023/01/25 04:16:12;;;;;;;25.15;11.00;;;4.30;95.70;;;;;;4948569;28;20117;-63
2023/01/25 04:18:56;;;;;;;26.73;11.40;;;4.30;95.80;;;;;;4961763;28;20105;-63
2023/01/25 04:21:22;;;;;;;23.27;11.05;;;4.30;95.70;;;;;;4958830;28;20043;-63
2023/01/25 04:23:48;;;;;;;31.10;12.85;;;4.30;95.90;;;;;;4938695;28;20471;-63
2023/01/25 04:26:14;;;;;;;26.60;10.90;;;4.40;95.70;;;;;;4958072;28;20062;-63
2023/01/25 04:28:45;;;;;;;26.98;12.23;;;4.40;95.60;;;;;;4939687;28;20039;-63
2023/01/25 04:31:11;;;;;;;32.40;12.63;;;4.40;95.60;;;;;;4957306;28;20300;-62
2023/01/25 04:33:39;;;;;;;27.52;11.77;;;4.40;95.50;;;;;;4946460;28;20030;-63
2023/01/25 04:36:07;;;;;;;23.42;10.93;;;4.40;95.50;;;;;;4960817;28;20136;-63
2023/01/25 04:38:33;;;;;;;27.50;11.75;;;4.40;95.40;;;;;;4940542;28;20038;-63
2023/01/25 04:40:59;;;;;;;23.35;10.90;;;4.30;95.50;;;;;;4957667;28;20399;-63
2023/01/25 04:43:25;;;;;;;27.35;11.95;;;4.30;95.70;;;;;;4959051;28;20034;-63
2023/01/25 04:45:56;;;;;;;24.63;11.15;;;4.30;95.80;;;;;;4957084;28;20090;-63
2023/01/25 04:48:29;;;;;;;24.92;11.80;;;4.40;95.70;;;;;;4938241;28;20049;-64
2023/01/25 04:50:59;;;;;;;26.60;11.65;;;4.40;95.70;;;;;;4939266;28;20410;-63
2023/01/25 04:53:25;;;;;;;25.33;11.10;;;4.40;95.60;;;;;;4942146;28;20031;-63
2023/01/25 04:55:53;;;;;;;26.30;13.05;;;4.40;95.70;;;;;;4942275;28;20058;-63
2023/01/25 04:58:19;;;;;;;30.50;12.20;;;4.40;95.60;;;;;;4944330;28;20035;-63
2023/01/25 05:00:45;;;;;;;27.85;12.82;;;4.40;95.60;;;;;;4946440;28;20529;-63
2023/01/25 05:03:11;;;;;;;24.75;12.20;;;4.50;95.50;;;;;;4955171;28;20055;-63
2023/01/25 05:05:37;;;;;;;25.23;10.93;;;4.50;95.30;;;;;;4938568;28;20063;-64
2023/01/25 05:08:08;;;;;;;25.92;11.82;;;4.40;95.30;;;;;;4953870;28;20034;-63
2023/01/25 05:10:34;;;;;;;30.33;11.98;;;4.40;95.70;;;;;;4951674;28;20035;-63
2023/01/25 05:13:25;;;;;;;26.13;10.60;;;4.30;95.90;;;;;;4936453;28;20758;-63
2023/01/25 05:16:01;;;;;;;26.15;11.93;;;4.30;96.00;;;;;;4937591;28;20035;-63
2023/01/25 05:18:27;;;;;;;24.48;11.25;;;4.30;96.00;;;;;;4936680;28;20035;-63
2023/01/25 05:20:55;;;;;;;21.75;9.13;;;4.30;96.10;;;;;;4938256;28;20030;-63
2023/01/25 05:23:22;;;;;;;16.25;8.68;;;4.40;96.00;;;;;;4937578;28;20146;-63
2023/01/25 05:28:34;;;;;;;13.18;7.45;;;4.40;96.00;;;;;;4950769;28;20412;-63
2023/01/25 05:31:15;;;;;;;13.85;7.32;;;4.40;95.90;;;;;;4935023;28;20197;-63
2023/01/25 05:33:41;;;;;;;12.43;6.00;;;4.50;95.90;;;;;;4954920;28;20023;-63
2023/01/25 05:36:07;;;;;;;18.92;8.57;;;4.50;95.80;;;;;;4939682;28;20152;-63
2023/01/25 05:38:36;;;;;;;17.15;8.20;;;4.50;95.60;;;;;;4941341;28;20235;-63
2023/01/25 05:41:03;;;;;;;16.27;7.47;;;4.50;95.70;;;;;;4939781;28;20034;-63
2023/01/25 05:43:29;;;;;;;15.77;7.70;;;4.50;95.70;;;;;;4937851;28;20037;-63
2023/01/25 05:45:57;;;;;;;16.50;7.43;;;4.40;95.80;;;;;;4940995;28;20605;-63
2023/01/25 05:48:23;;;;;;;14.95;6.45;;;4.50;95.90;;;;;;4937870;28;20031;-63
2023/01/25 05:50:50;;;;;;;12.43;6.05;;;4.50;96.00;;;;;;4935224;28;20058;-63
2023/01/25 05:53:27;;;;;;;12.38;5.38;;;4.40;95.80;;;;;;4938338;28;20038;-63
2023/01/25 05:55:53;;;;;;;12.18;5.55;;;4.40;95.70;;;;;;4962061;28;20102;-63
2023/01/25 05:58:19;;;;;;;12.65;6.95;;;4.40;95.70;;;;;;4959404;28;20035;-63
2023/01/25 06:00:45;;;;;;;16.20;6.57;;;4.40;95.80;;;;;;4944373;28;20222;-63
2023/01/25 06:03:19;;;;;;;14.35;6.47;;;4.30;95.80;;;;;;4939971;28;20035;-63
2023/01/25 06:05:45;;;;;;;12.25;5.80;;;4.30;95.90;;;;;;4957685;28;20801;-63
2023/01/25 06:08:11;;;;;;;12.75;6.50;;;4.30;96.00;;;;;;4956582;28;20071;-63
2023/01/25 06:10:43;;;;;;;12.75;6.00;;;4.20;96.00;;;;;;4951804;28;20092;-63
2023/01/25 06:13:08;;;;;;;11.55;6.10;;;4.20;96.10;;;;;;4950050;28;20035;-63
2023/01/25 06:15:34;;;;;;;10.85;5.45;;;4.20;96.20;;;;;;4937687;28;20035;-63
2023/01/25 06:18:23;;;;;;;9.10;5.18;;;4.20;96.30;;;;;;4921176;28;20126;-63
2023/01/25 06:21:13;;;;;;;14.00;5.97;;;4.20;96.20;;;;;;4938475;28;20126;-63
2023/01/25 06:23:39;;;;;;;12.68;5.90;;;4.20;96.30;;;;;;4959014;28;20031;-65
2023/01/25 06:26:07;;;;;;;12.38;6.35;;;4.30;96.30;;;;;;4956033;28;20525;-62
2023/01/25 06:28:35;;;;;;;10.70;5.88;;;4.30;96.20;;;;;;4958967;28;20034;-62
2023/01/25 06:31:08;;;;;;;12.50;6.53;;;4.40;96.00;;;;;;4950146;28;20396;-63
2023/01/25 06:33:35;;;;;;;14.20;6.82;;;4.40;96.00;;;;;;4954680;28;20046;-63
2023/01/25 06:36:10;;;;;;;15.45;6.25;;;4.50;95.90;;;;;;4942327;28;20042;-63
2023/01/25 06:38:35;;;;;;;12.93;6.72;;;4.50;95.80;;;;;;4949948;28;20054;-64
2023/01/25 06:41:03;;;;;;;11.90;6.70;;;4.50;95.90;;;;;;4951370;28;20189;-63
2023/01/25 06:43:29;;;;;;;15.90;6.65;;;4.40;95.60;;;;;;4952273;28;20035;-65
2023/01/25 06:46:04;;;;;;;15.95;6.70;;;4.40;95.50;;;;;;4956472;28;20077;-65
2023/01/25 06:48:31;;;;;;;15.93;6.63;;;4.40;95.30;;;;;;4948405;28;20034;-64
2023/01/25 06:51:02;;;;;;;13.15;6.47;;;4.40;95.60;;;;;;4953399;28;20033;-64
2023/01/25 06:53:32;;;;;;;15.27;7.22;;;4.40;95.60;;;;;;4951611;28;20045;-64
2023/01/25 06:56:04;;;;;;;14.75;6.80;;;4.40;95.70;;;;;;4957043;28;20057;-63
2023/01/25 06:58:30;;;;;;;13.32;6.53;;;4.40;95.50;;;;;;4949369;28;20077;-64
2023/01/25 07:01:14;;;;;;;15.07;6.95;;;4.40;95.60;;;;;;4954524;28;20109;-65
2023/01/25 07:03:41;;;;;;;18.83;7.25;;;4.30;95.80;;;;;;4955830;28;20058;-64
2023/01/25 07:06:09;;;;;;;15.05;6.57;;;4.30;95.90;;;;;;4942913;28;20062;-64
2023/01/25 07:08:36;;;;;;;17.40;7.82;;;4.30;96.10;;;;;;4932516;28;20063;-65
2023/01/25 07:11:04;;;;;;;19.33;6.75;;;4.30;96.10;;;;;;4935680;28;20043;-59
2023/01/25 07:13:31;;;;;;;16.25;7.93;;;4.30;96.10;;;;;;4933180;28;20161;-64
2023/01/25 07:16:03;;;;;;;16.38;7.38;;;4.30;96.10;;;;;;4931336;28;20642;-62
2023/01/25 07:18:30;;;;;;;18.25;8.63;;;4.30;96.30;;;;;;4934362;28;20039;-63
2023/01/25 07:21:08;;;;;;;17.02;8.27;;;4.20;96.40;;;;;;4931121;28;20031;-64
2023/01/25 07:23:36;;;;;;;19.33;7.43;;;4.10;96.60;;;;;;4936697;28;20031;-63
2023/01/25 07:26:02;;;;;;;22.08;8.90;;;4.10;96.70;;;;;;4922664;29;20035;-63
2023/01/25 07:28:30;;;;;;;19.20;8.40;;;4.10;96.60;;;;;;4940849;28;20455;-63
2023/01/25 07:30:56;;;;;;;20.45;8.50;;;4.20;96.80;;;;;;4934162;28;20125;-61
2023/01/25 07:33:22;;;;;;;17.05;7.88;;;4.10;96.70;;;;;;4934767;28;20498;-64
2023/01/25 07:35:49;;;;;;;18.98;8.23;;;4.20;96.60;;;;;;4936152;28;20090;-64
2023/01/25 07:38:15;;;;;;;19.73;8.07;;;4.20;96.60;;;;;;4935202;28;20042;-64
2023/01/25 07:40:42;;;;;;;19.08;8.98;;;4.20;96.60;;;;;;4916107;29;20090;-61
2023/01/25 07:43:08;;;;;;;30.15;13.45;;;4.20;96.70;;;;;;4936446;28;20046;-67
2023/01/25 07:45:35;;;;;;;52.05;23.20;;;4.30;96.70;;;;;;4917207;28;20566;-63
2023/01/25 07:48:09;;;;;;;42.63;18.25;;;4.30;96.60;;;;;;4938599;28;20083;-64
2023/01/25 07:50:34;;;;;;;39.28;18.35;;;4.30;96.60;;;;;;4940007;28;20078;-64
2023/01/25 07:53:00;;;;;;;33.15;14.13;;;4.30;96.70;;;;;;4936415;28;20130;-64
2023/01/25 07:55:26;;;;;;;33.85;16.17;;;4.10;96.90;;;;;;4928816;28;20023;-63
2023/01/25 07:57:54;;;;;;;29.88;14.00;;;4.10;97.10;;;;;;4938567;29;20032;-65
2023/01/25 08:00:20;;;;;;;30.65;14.40;;;4.10;97.20;;;;;;4931281;28;20050;-63
2023/01/25 08:02:49;;;;;;;22.92;11.23;;;4.10;97.40;;;;;;4933225;28;20036;-62
2023/01/25 08:05:15;;;;;;;24.38;11.13;;;3.90;97.50;;;;;;4933255;28;20043;-63
2023/01/25 08:07:41;;;;;;;24.15;11.10;;;3.90;97.60;;;;;;4932768;28;20085;-64
2023/01/25 08:10:07;;;;;;;25.58;10.07;;;3.90;97.90;;;;;;4934808;29;20035;-64
2023/01/25 08:12:33;;;;;;;29.20;11.90;;;3.90;97.70;;;;;;4938075;28;20031;-66
2023/01/25 08:15:00;;;;;;;30.85;14.50;;;3.90;98.00;;;;;;4932309;28;20461;-67
2023/01/25 08:17:30;;;;;;;32.75;14.00;;;4.00;97.80;;;;;;4933756;28;20036;-66
2023/01/25 08:20:00;;;;;;;37.20;15.25;;;4.00;97.70;;;;;;4935877;28;20183;-64
2023/01/25 08:22:27;;;;;;;110.90;43.85;;;4.00;97.70;;;;;;4929329;28;20043;-65
2023/01/25 08:24:53;;;;;;;30.45;15.07;;;4.00;97.60;;;;;;4930572;28;20032;-66
2023/01/25 08:27:19;;;;;;;27.40;11.23;;;4.00;97.60;;;;;;4934677;28;20043;-66
2023/01/25 08:29:46;;;;;;;27.02;12.02;;;3.90;97.70;;;;;;4940334;29;20054;-66
2023/01/25 08:32:11;;;;;;;30.55;13.43;;;3.80;97.90;;;;;;4932713;28;20039;-70
2023/01/25 08:34:38;;;;;;;30.77;13.02;;;3.80;98.20;;;;;;4934855;28;20027;-68
2023/01/25 08:37:04;;;;;;;33.38;14.88;;;3.80;98.30;;;;;;4933791;28;20059;-68
2023/01/25 08:39:30;;;;;;;30.75;12.40;;;3.80;98.40;;;;;;4931013;28;20047;-69
2023/01/25 08:41:56;;;;;;;27.08;11.80;;;3.70;98.30;;;;;;4938269;28;20046;-68
2023/01/25 08:44:23;;;;;;;25.42;10.82;;;3.70;98.70;;;;;;4932903;28;20088;-65
2023/01/25 08:46:49;;;;;;;24.50;11.35;;;3.80;98.50;;;;;;4931731;28;20081;-65
2023/01/25 08:49:15;;;;;;;27.15;11.45;;;3.80;98.50;;;;;;4936208;28;20039;-65
2023/01/25 08:51:41;;;;;;;28.60;11.90;;;3.80;98.60;;;;;;4939491;28;20064;-65
2023/01/25 08:54:10;;;;;;;27.70;13.88;;;3.90;98.60;;;;;;4935485;28;20131;-64
2023/01/25 08:56:38;;;;;;;33.40;15.63;;;4.00;98.40;;;;;;4934290;28;20036;-65
2023/01/25 08:59:04;;;;;;;34.25;14.18;;;4.00;98.10;;;;;;4936618;28;20551;-65
2023/01/25 09:01:30;;;;;;;29.67;14.35;;;4.00;98.00;;;;;;4938249;28;20046;-64
2023/01/25 09:03:56;;;;;;;54.05;27.27;;;3.80;98.30;;;;;;4935750;28;20035;-64
2023/01/25 09:06:22;;;;;;;33.47;16.27;;;3.70;98.70;;;;;;4933929;28;20426;-67
2023/01/25 09:08:48;;;;;;;26.30;11.98;;;3.70;98.60;;;;;;4938368;29;20047;-67
2023/01/25 09:11:19;;;;;;;25.52;11.45;;;3.80;98.80;;;;;;4940148;28;20035;-67
2023/01/25 09:13:47;;;;;;;30.13;11.93;;;3.80;98.50;;;;;;4932530;28;20032;-66
2023/01/25 09:16:16;;;;;;;33.33;14.27;;;3.90;98.30;;;;;;4938743;28;20035;-66
2023/01/25 09:18:44;;;;;;;37.45;14.43;;;3.80;98.30;;;;;;4938245;28;20431;-67
2023/01/25 09:21:17;;;;;;;28.73;12.98;;;3.80;98.30;;;;;;4936798;28;20031;-67
2023/01/25 09:23:43;;;;;;;29.38;11.88;;;3.70;98.60;;;;;;4935236;28;20043;-67
2023/01/25 09:26:10;;;;;;;27.30;10.55;;;3.70;98.70;;;;;;4934405;28;20031;-64
2023/01/25 09:28:36;;;;;;;24.88;10.57;;;3.70;98.80;;;;;;4934065;28;20059;-64
2023/01/25 09:31:05;;;;;;;23.85;9.65;;;3.80;98.60;;;;;;4940483;28;20122;-64
2023/01/25 09:33:51;;;;;;;24.95;11.35;;;3.90;98.40;;;;;;4906923;29;20051;-67
2023/01/25 09:36:18;;;;;;;27.15;11.68;;;4.00;98.20;;;;;;4935458;28;20620;-67
2023/01/25 09:38:44;;;;;;;32.03;13.45;;;4.10;98.00;;;;;;4936923;28;20046;-66
2023/01/25 09:41:24;;;;;;;55.60;23.67;;;4.20;97.70;;;;;;4936446;28;20451;-64
2023/01/25 09:44:15;;;;;;;42.30;17.38;;;4.20;97.70;;;;;;4934497;28;20062;-67
2023/01/25 09:46:51;;;;;;;91.15;31.73;;;4.20;97.80;;;;;;4932467;28;20066;-64
2023/01/25 09:49:32;;;;;;;;;;;4.20;97.70;;;;;;4937962;28;20039;-66
2023/01/25 09:52:16;;;;;;;91.82;36.13;;;4.30;97.50;;;;;;4938589;28;19925;-66
2023/01/25 09:54:45;;;;;;;49.78;20.13;;;4.30;97.60;;;;;;4936386;28;20762;-67
2023/01/25 09:57:21;;;;;;;50.08;21.58;;;4.30;97.70;;;;;;4928254;28;20395;-66
2023/01/25 09:59:50;;;;;;;35.55;14.65;;;4.20;97.60;;;;;;4936049;28;20042;-66
2023/01/25 10:02:27;;;;;;;58.53;24.00;;;4.20;97.90;;;;;;4939133;28;20526;-66
2023/01/25 10:04:55;;;;;;;42.00;16.92;;;4.20;97.80;;;;;;4939989;28;20078;-66
2023/01/25 10:07:40;;;;;;;37.30;14.80;;;4.20;97.60;;;;;;4936478;28;20050;-66
2023/01/25 10:10:27;;;;;;;28.33;11.98;;;4.20;97.70;;;;;;4934783;28;20134;-66
2023/01/25 10:12:52;;;;;;;27.60;11.70;;;4.10;97.70;;;;;;4934157;28;20045;-64
2023/01/25 10:15:27;;;;;;;34.92;14.15;;;4.20;97.80;;;;;;4935222;28;20744;-66
2023/01/25 10:18:11;;;;;;;72.38;28.33;;;4.30;97.40;;;;;;4934974;28;20031;-66
2023/01/25 10:20:47;;;;;;;38.35;16.13;;;4.30;97.40;;;;;;4934485;28;20650;-67
2023/01/25 10:23:32;;;;;;;43.55;16.90;;;4.40;97.40;;;;;;4933106;28;20395;-66
2023/01/25 10:26:17;;;;;;;40.08;16.77;;;4.30;97.30;;;;;;4937024;28;20047;-67
2023/01/25 10:28:53;;;;;;;66.38;24.95;;;4.40;97.30;;;;;;4937557;28;20035;-67
2023/01/25 10:31:21;;;;;;;;;;;4.40;97.30;;;;;;4932771;28;20050;-66
2023/01/25 10:33:48;;;;;;;26.92;10.55;;;4.20;97.30;;;;;;4936757;28;19969;-66
2023/01/25 10:36:17;;;;;;;34.15;15.45;;;4.00;97.70;;;;;;4942096;28;20039;-64
2023/01/25 10:38:46;;;;;;;32.00;14.27;;;4.00;98.10;;;;;;4934196;28;20555;-66
2023/01/25 10:41:25;;;;;;;39.00;17.58;;;4.00;98.10;;;;;;4921336;29;20031;-68
2023/01/25 10:44:20;;;;;;;38.97;16.10;;;4.10;97.90;;;;;;4932386;29;20039;-64
2023/01/25 10:46:39;;;;;;;41.67;18.42;;;4.00;97.90;;;;;;4934464;28;20514;-67
2023/01/25 10:49:20;;;;;;;62.42;26.77;;;4.00;98.00;;;;;;4936732;29;20031;-67
2023/01/25 10:51:45;;;;;;;47.15;20.52;;;4.10;98.00;;;;;;4936556;28;20348;-67
2023/01/25 10:54:15;;;;;;;34.38;15.55;;;4.10;97.80;;;;;;4937387;28;20646;-65
2023/01/25 10:56:42;;;;;;;37.35;16.15;;;4.10;97.80;;;;;;4940345;28;20032;-67
2023/01/25 10:59:17;;;;;;;39.30;15.55;;;4.10;97.70;;;;;;4934716;28;20095;-67
2023/01/25 11:01:43;;;;;;;36.80;16.75;;;4.30;97.70;;;;;;4934504;28;20051;-66
2023/01/25 11:04:28;;;;;;;30.92;11.43;;;4.20;97.40;;;;;;4937852;29;20046;-66
2023/01/25 11:06:54;;;;;;;45.08;17.92;;;4.10;97.60;;;;;;4930860;28;20039;-66
2023/01/25 11:09:19;;;;;;;26.52;11.38;;;4.00;97.90;;;;;;4932326;28;20052;-65
2023/01/25 11:11:55;;;;;;;27.27;12.27;;;4.00;98.20;;;;;;4936252;28;20043;-65
2023/01/25 11:14:23;;;;;;;24.30;10.03;;;4.00;98.20;;;;;;4934518;28;20038;-66
2023/01/25 11:16:49;;;;;;;25.35;11.05;;;4.00;98.20;;;;;;4933639;29;20395;-66
2023/01/25 11:19:41;;;;;;;22.52;9.27;;;4.00;98.20;;;;;;4935006;28;20035;-67
2023/01/25 11:22:18;;;;;;;28.35;11.25;;;3.90;98.20;;;;;;4934518;28;20061;-66
2023/01/25 11:24:45;;;;;;;27.73;11.80;;;4.00;98.00;;;;;;4933888;28;20122;-64
2023/01/25 11:27:23;;;;;;;32.97;12.50;;;4.00;98.00;;;;;;4933640;28;20032;-67
2023/01/25 11:30:04;;;;;;;39.38;17.30;;;3.90;98.10;;;;;;4938551;28;20097;-67
2023/01/25 11:32:31;;;;;;;31.15;14.68;;;3.90;98.10;;;;;;4906212;28;20094;-66
2023/01/25 11:34:57;;;;;;;28.02;12.60;;;3.90;98.30;;;;;;4933250;28;20038;-66
2023/01/25 11:37:43;;;;;;;47.42;23.25;;;4.00;98.40;;;;;;4901760;29;20042;-67
2023/01/25 11:40:28;;;;;;;44.22;20.48;;;4.10;98.00;;;;;;4832123;29;20394;-64
2023/01/25 11:43:12;;;;;;;28.02;11.23;;;4.10;98.00;;;;;;4940762;29;20035;-65
2023/01/25 11:46:05;;;;;;;28.63;10.18;;;4.00;98.20;;;;;;4910903;29;20151;-63
2023/01/25 11:48:34;;;;;;;22.08;9.13;;;3.90;98.50;;;;;;4905780;29;20039;-65
2023/01/25 11:51:31;;;;;;;24.63;10.43;;;4.00;98.60;;;;;;4924653;29;20043;-65
2023/01/25 11:54:44;;;;;;;29.00;10.55;;;4.00;98.30;;;;;;4928194;28;20182;-65
2023/01/25 11:57:54;;;;;;;32.30;12.20;;;3.90;98.20;;;;;;4853824;29;20046;-67
2023/01/25 12:00:24;;;;;;;36.58;18.70;;;3.70;98.50;;;;;;4781840;29;20088;-65
2023/01/25 12:03:04;;;;;;;39.22;17.02;;;3.70;98.80;;;;;;4865679;29;20048;-65
2023/01/25 12:06:00;;;;;;;38.55;19.23;;;3.80;98.90;;;;;;4906924;28;20162;-65
2023/01/25 12:08:29;;;;;;;35.35;15.52;;;3.90;98.80;;;;;;4933416;28;20057;-67
2023/01/25 12:11:04;;;;;;;37.72;17.20;;;4.00;98.70;;;;;;4930918;28;20035;-64
2023/01/25 12:13:51;;;;;;;36.08;18.52;;;4.00;98.50;;;;;;4930246;28;20031;-65
2023/01/25 12:16:42;;;;;;;21.65;9.73;;;4.00;98.90;;;;;;4927923;28;20031;-65
2023/01/25 12:19:34;;;;;;;26.25;10.38;;;3.80;98.40;;;;;;4935149;28;20086;-65
2023/01/25 12:22:02;;;;;;;24.00;9.40;;;3.60;98.60;;;;;;4934643;28;20043;-65
2023/01/25 12:24:28;;;;;;;22.88;9.93;;;3.50;99.20;;;;;;4938563;28;20049;-65
2023/01/25 12:27:07;;;;;;;29.85;11.18;;;3.40;99.40;;;;;;4936790;28;20035;-66
2023/01/25 12:29:45;;;;;;;33.35;13.85;;;3.50;99.50;;;;;;4937902;28;20039;-66
2023/01/25 12:32:34;;;;;;;95.70;39.92;;;3.50;99.70;;;;;;4938685;28;20062;-68
2023/01/25 12:35:35;;;;;;;44.22;19.00;;;3.70;99.40;;;;;;4935607;28;20060;-63
2023/01/25 12:38:47;;;;;;;44.40;19.27;;;3.80;99.00;;;;;;4939275;28;20077;-63
2023/01/25 12:41:53;;;;;;;46.50;19.88;;;3.80;98.70;;;;;;4902578;29;20046;-66
2023/01/25 12:44:46;;;;;;;67.40;31.35;;;3.80;98.80;;;;;;4910204;28;20050;-64
2023/01/25 12:47:32;;;;;;;30.23;13.70;;;3.90;98.80;;;;;;4939724;28;20039;-65
2023/01/25 12:50:37;;;;;;;35.75;18.85;;;3.90;98.40;;;;;;4934867;28;20074;-66
2023/01/25 12:53:41;;;;;;;25.58;11.00;;;3.90;98.60;;;;;;4937306;28;20038;-66
2023/01/25 12:56:13;;;;;;;43.38;15.32;;;3.90;98.60;;;;;;4936789;28;20881;-66
2023/01/25 12:59:31;;;;;;;37.10;12.95;;;3.90;98.60;;;;;;4935797;29;20728;-67
2023/01/25 13:02:38;;;;;;;29.30;12.25;;;3.90;98.80;;;;;;4922603;28;20134;-66
2023/01/25 13:05:20;;;;;;;26.42;12.27;;;4.00;98.60;;;;;;4924133;28;20035;-66
2023/01/25 13:07:53;;;;;;;27.55;11.63;;;4.00;98.20;;;;;;4938345;28;20043;-66